Time;durP1;ratioP1;P1;durP2;ratioP2;P2;SDS_P1;SDS_P2;PMS_P1;PMS_P2;Temp;Humidity;BMP_temperature;BMP_pressure;BME280_temperature;BME280_humidity;BME280_pressure;Samples;Min_cycle;Max_cycle;Signal;HPM_P1;HPM_P2
2023/03/11 00:00:34;;;;;;;19.85;12.65;;;0.80;99.90;;;;;;4946340;28;20059;-72
2023/03/11 00:03:01;;;;;;;20.13;12.65;;;0.90;99.90;;;;;;4981900;28;20058;-72
2023/03/11 00:05:30;;;;;;;17.35;11.40;;;0.90;99.90;;;;;;4977474;28;20057;-73
2023/03/11 00:07:56;;;;;;;18.25;12.15;;;0.90;99.90;;;;;;4961894;28;20042;-72
2023/03/11 00:10:27;;;;;;;18.10;10.80;;;0.90;99.90;;;;;;4950832;28;20755;-72
2023/03/11 00:12:53;;;;;;;19.02;12.20;;;0.90;99.90;;;;;;4952258;28;20078;-73
2023/03/11 00:15:19;;;;;;;18.50;12.07;;;0.90;99.90;;;;;;4962717;28;20476;-73
2023/03/11 00:17:46;;;;;;;18.38;11.32;;;0.90;99.90;;;;;;4980295;28;20061;-73
2023/03/11 00:20:21;;;;;;;20.77;12.90;;;0.90;99.90;;;;;;4970268;28;20047;-73
2023/03/11 00:22:47;;;;;;;17.05;11.57;;;0.90;99.90;;;;;;4962071;28;20738;-73
2023/03/11 00:25:13;;;;;;;22.25;13.75;;;1.00;99.90;;;;;;4947520;28;20058;-72
2023/03/11 00:27:42;;;;;;;20.40;12.20;;;1.00;99.90;;;;;;4964514;28;20121;-73
2023/03/11 00:30:09;;;;;;;17.50;11.73;;;0.90;99.90;;;;;;4971018;28;20038;-73
2023/03/11 00:32:34;;;;;;;19.40;11.70;;;1.00;99.90;;;;;;4950325;28;20429;-73
2023/03/11 00:35:00;;;;;;;18.80;11.75;;;1.00;99.90;;;;;;4949364;28;20081;-73
2023/03/11 00:37:26;;;;;;;18.00;11.63;;;1.00;99.90;;;;;;4954862;28;20370;-73
2023/03/11 00:39:52;;;;;;;19.55;12.43;;;1.00;99.90;;;;;;4979601;28;20046;-73
2023/03/11 00:42:18;;;;;;;18.83;11.50;;;0.90;99.90;;;;;;4963159;28;20058;-73
2023/03/11 00:44:44;;;;;;;16.95;11.30;;;1.00;99.90;;;;;;4982555;28;20088;-73
2023/03/11 00:47:10;;;;;;;24.35;13.23;;;0.90;99.90;;;;;;4975680;28;20086;-73
2023/03/11 00:49:36;;;;;;;21.27;12.63;;;0.90;99.90;;;;;;4974387;28;20042;-73
2023/03/11 00:52:02;;;;;;;19.45;12.48;;;0.80;99.90;;;;;;4944535;28;20719;-73
2023/03/11 00:54:27;;;;;;;19.90;12.45;;;0.90;99.90;;;;;;4938922;28;20828;-73
2023/03/11 00:56:53;;;;;;;20.38;13.10;;;0.90;99.90;;;;;;4959595;28;20058;-73
2023/03/11 00:59:19;;;;;;;19.17;12.23;;;0.90;99.90;;;;;;4976815;28;20475;-73
2023/03/11 01:01:45;;;;;;;21.85;13.57;;;0.90;99.90;;;;;;4981615;28;20050;-73
2023/03/11 01:04:11;;;;;;;20.85;11.88;;;0.90;99.90;;;;;;4956058;28;20053;-73
2023/03/11 01:06:36;;;;;;;26.05;15.48;;;0.80;99.90;;;;;;4968230;28;20042;-74
2023/03/11 01:09:03;;;;;;;21.77;14.52;;;0.80;99.90;;;;;;4974003;28;20061;-73
2023/03/11 01:11:29;;;;;;;21.23;12.85;;;0.90;99.90;;;;;;4962793;28;20050;-72
2023/03/11 01:13:56;;;;;;;22.80;14.27;;;0.80;99.90;;;;;;4967284;28;20084;-73
2023/03/11 01:16:22;;;;;;;23.67;14.60;;;0.90;99.90;;;;;;4969465;28;20070;-73
2023/03/11 01:18:47;;;;;;;23.23;14.38;;;0.80;99.90;;;;;;4967068;28;20400;-72
2023/03/11 01:21:13;;;;;;;19.63;13.48;;;0.90;99.90;;;;;;4966431;28;20042;-72
2023/03/11 01:23:40;;;;;;;21.38;13.77;;;0.80;99.90;;;;;;4963428;28;20054;-72
2023/03/11 01:26:05;;;;;;;22.05;13.50;;;0.90;99.90;;;;;;4963392;28;20057;-73
2023/03/11 01:28:31;;;;;;;19.90;11.88;;;0.90;99.90;;;;;;4986624;28;20129;-72
2023/03/11 01:30:57;;;;;;;23.60;14.70;;;0.80;99.90;;;;;;4979019;28;20058;-73
2023/03/11 01:33:23;;;;;;;21.38;12.35;;;1.00;99.90;;;;;;4975662;28;20046;-73
2023/03/11 01:35:48;;;;;;;18.95;12.30;;;0.80;99.90;;;;;;4971894;28;20740;-72
2023/03/11 01:38:15;;;;;;;19.38;12.48;;;0.80;99.90;;;;;;4952618;28;20050;-72
2023/03/11 01:40:46;;;;;;;27.35;14.55;;;0.80;99.90;;;;;;4944761;28;20108;-73
2023/03/11 01:43:40;;;;;;;21.27;13.07;;;0.90;99.90;;;;;;4946848;28;20118;-73
2023/03/11 01:46:14;;;;;;;22.00;13.95;;;0.90;99.90;;;;;;4975081;28;20082;-73
2023/03/11 01:48:45;;;;;;;22.35;13.88;;;0.80;99.90;;;;;;4959704;28;20050;-73
2023/03/11 01:51:11;;;;;;;21.42;14.60;;;0.90;99.90;;;;;;4981442;28;20043;-73
2023/03/11 01:53:37;;;;;;;26.50;15.68;;;0.80;99.90;;;;;;4984174;28;20174;-72
2023/03/11 01:56:07;;;;;;;20.23;13.52;;;0.80;99.90;;;;;;4975054;28;20056;-74
2023/03/11 01:58:36;;;;;;;22.00;14.20;;;0.80;99.90;;;;;;4967696;28;20047;-73
2023/03/11 02:01:02;;;;;;;20.05;12.15;;;0.80;99.90;;;;;;4958103;28;20050;-72
2023/03/11 02:03:33;;;;;;;22.38;14.27;;;0.80;99.90;;;;;;4979175;28;20514;-73
2023/03/11 02:06:00;;;;;;;21.13;13.55;;;0.80;99.90;;;;;;4987370;28;20053;-72
2023/03/11 02:08:26;;;;;;;26.38;16.25;;;0.90;99.90;;;;;;4968091;28;20053;-72
2023/03/11 02:10:52;;;;;;;25.73;15.95;;;0.80;99.90;;;;;;4975232;28;20368;-72
2023/03/11 02:13:18;;;;;;;26.90;15.88;;;0.80;99.90;;;;;;4947110;28;20047;-72
2023/03/11 02:15:44;;;;;;;27.90;16.85;;;0.90;99.90;;;;;;4986938;28;20174;-73
2023/03/11 02:18:10;;;;;;;26.05;15.60;;;0.90;99.90;;;;;;4969300;28;20482;-72
2023/03/11 02:21:02;;;;;;;22.30;14.80;;;0.90;99.90;;;;;;4957477;28;20047;-73
2023/03/11 02:23:36;;;;;;;28.20;16.85;;;0.80;99.90;;;;;;4972194;28;20057;-72
2023/03/11 02:26:21;;;;;;;24.50;14.95;;;0.90;99.90;;;;;;4961857;28;20128;-72
2023/03/11 02:28:47;;;;;;;22.63;14.45;;;0.90;99.90;;;;;;4983688;28;20042;-72
2023/03/11 02:31:13;;;;;;;21.92;14.63;;;0.90;99.90;;;;;;4937735;28;20117;-72
2023/03/11 02:33:39;;;;;;;24.60;14.57;;;0.80;99.90;;;;;;4950751;28;20649;-73
2023/03/11 02:36:05;;;;;;;27.00;16.17;;;0.80;99.90;;;;;;4974048;28;20047;-73
2023/03/11 02:38:31;;;;;;;22.40;13.35;;;0.80;99.90;;;;;;4966165;28;20066;-72
2023/03/11 02:40:58;;;;;;;21.08;13.48;;;0.80;99.90;;;;;;4984333;28;20093;-72
2023/03/11 02:43:43;;;;;;;19.30;11.50;;;0.90;99.90;;;;;;4984611;28;20140;-72
2023/03/11 02:46:09;;;;;;;20.70;12.55;;;0.90;99.90;;;;;;4959739;28;20086;-73
2023/03/11 02:48:34;;;;;;;18.52;12.90;;;0.90;99.90;;;;;;4946912;28;20120;-73
2023/03/11 02:51:01;;;;;;;23.13;12.80;;;0.90;99.90;;;;;;4970236;28;20046;-73
2023/03/11 02:53:39;;;;;;;19.05;12.13;;;0.90;99.90;;;;;;4946451;28;20043;-72
2023/03/11 02:56:05;;;;;;;18.40;12.48;;;1.00;99.90;;;;;;4954181;28;20073;-73
2023/03/11 02:58:31;;;;;;;19.98;12.57;;;1.00;99.90;;;;;;4978566;28;20047;-72
2023/03/11 03:00:57;;;;;;;18.70;11.20;;;1.00;99.90;;;;;;4954352;28;20042;-72
2023/03/11 03:03:23;;;;;;;18.00;11.30;;;0.90;99.90;;;;;;4964291;28;20047;-72
2023/03/11 03:05:49;;;;;;;20.05;12.80;;;0.90;99.90;;;;;;4959912;28;20050;-72
2023/03/11 03:08:15;;;;;;;21.85;13.18;;;0.90;99.90;;;;;;4964866;28;20462;-72
2023/03/11 03:10:42;;;;;;;20.70;12.63;;;0.90;99.90;;;;;;4982102;28;20125;-73
2023/03/11 03:13:07;;;;;;;19.30;12.43;;;0.90;99.90;;;;;;4957230;28;20463;-72
2023/03/11 03:15:33;;;;;;;20.30;12.23;;;0.90;99.90;;;;;;4955192;28;20136;-73
2023/03/11 03:18:00;;;;;;;18.55;11.52;;;0.90;99.90;;;;;;4970464;28;20371;-72
2023/03/11 03:20:26;;;;;;;17.23;10.77;;;0.90;99.90;;;;;;4963228;28;20434;-72
2023/03/11 03:22:52;;;;;;;16.90;9.63;;;0.80;99.90;;;;;;4984560;28;20178;-73
2023/03/11 03:25:17;;;;;;;15.20;8.20;;;0.80;99.90;;;;;;4964053;28;20133;-72
2023/03/11 03:27:43;;;;;;;15.38;9.05;;;0.90;99.90;;;;;;4969155;28;20038;-73
2023/03/11 03:30:09;;;;;;;16.55;9.70;;;0.80;99.90;;;;;;4971840;28;20051;-72
2023/03/11 03:32:35;;;;;;;13.20;7.75;;;0.80;99.90;;;;;;4961216;28;20069;-73
2023/03/11 03:35:01;;;;;;;11.23;7.35;;;0.80;99.90;;;;;;4961200;28;20046;-72
2023/03/11 03:37:32;;;;;;;12.10;7.35;;;0.80;99.90;;;;;;4985458;28;20756;-73
2023/03/11 03:39:58;;;;;;;11.45;7.28;;;0.80;99.90;;;;;;4962498;28;20085;-72
2023/03/11 03:42:24;;;;;;;10.20;7.25;;;0.70;99.90;;;;;;4986939;28;20157;-73
2023/03/11 03:44:51;;;;;;;13.00;7.80;;;0.80;99.90;;;;;;4966576;28;20054;-72
2023/03/11 03:47:17;;;;;;;12.23;7.45;;;0.70;99.90;;;;;;4991348;28;20077;-74
2023/03/11 03:49:43;;;;;;;13.30;7.93;;;0.80;99.90;;;;;;4957697;28;20039;-73
2023/03/11 03:52:09;;;;;;;12.07;7.60;;;0.70;99.90;;;;;;4943131;28;20049;-73
2023/03/11 03:54:36;;;;;;;19.48;8.98;;;0.70;99.90;;;;;;4970179;28;20054;-72
2023/03/11 03:57:01;;;;;;;10.60;7.22;;;0.70;99.90;;;;;;4973286;28;20753;-73
2023/03/11 03:59:27;;;;;;;13.02;8.52;;;0.60;99.90;;;;;;4959817;28;20065;-73
2023/03/11 04:01:53;;;;;;;16.88;8.50;;;0.60;99.90;;;;;;4963756;28;20156;-72
2023/03/11 04:04:19;;;;;;;15.13;8.10;;;0.60;99.90;;;;;;4974480;28;20053;-73
2023/03/11 04:06:44;;;;;;;16.58;9.02;;;0.70;99.90;;;;;;4979670;28;20046;-73
2023/03/11 04:09:10;;;;;;;12.68;7.75;;;0.70;99.90;;;;;;4971202;28;20085;-73
2023/03/11 04:11:36;;;;;;;13.48;7.80;;;0.60;99.90;;;;;;4939113;28;20376;-73
2023/03/11 04:14:02;;;;;;;12.70;7.63;;;0.60;99.90;;;;;;4958101;28;20082;-72
2023/03/11 04:16:28;;;;;;;12.43;7.70;;;0.60;99.90;;;;;;4966996;28;20129;-72
2023/03/11 04:18:54;;;;;;;13.38;7.97;;;0.60;99.90;;;;;;4937529;28;20685;-73
2023/03/11 04:21:19;;;;;;;12.80;6.78;;;0.60;99.90;;;;;;4956330;28;20057;-73
2023/03/11 04:23:45;;;;;;;10.07;6.40;;;0.50;99.90;;;;;;4972752;28;20060;-73
2023/03/11 04:26:11;;;;;;;11.07;6.45;;;0.60;99.90;;;;;;4963629;28;20051;-73
2023/03/11 04:28:37;;;;;;;10.45;6.95;;;0.70;99.90;;;;;;4966411;28;20113;-75
2023/03/11 04:31:03;;;;;;;8.90;5.22;;;0.70;99.90;;;;;;4970152;28;20050;-74
2023/03/11 04:33:28;;;;;;;12.63;5.40;;;0.60;99.90;;;;;;4978783;28;20058;-73
2023/03/11 04:35:54;;;;;;;9.88;5.63;;;0.50;99.90;;;;;;4964471;28;20069;-72
2023/03/11 04:38:20;;;;;;;11.15;5.70;;;0.60;99.90;;;;;;4989178;28;20664;-74
2023/03/11 04:40:46;;;;;;;9.98;6.20;;;0.60;99.90;;;;;;4949319;28;20133;-72
2023/03/11 04:43:11;;;;;;;10.35;5.80;;;0.60;99.90;;;;;;4995352;28;20084;-72
2023/03/11 04:45:38;;;;;;;13.68;6.75;;;0.60;99.90;;;;;;4987362;28;20057;-73
2023/03/11 04:48:04;;;;;;;10.15;6.03;;;0.70;99.90;;;;;;4968827;28;20153;-74
2023/03/11 04:50:30;;;;;;;11.43;6.45;;;0.70;99.90;;;;;;4962919;28;20129;-72
2023/03/11 04:52:56;;;;;;;10.15;6.50;;;0.60;99.90;;;;;;4966216;28;20066;-74
2023/03/11 04:55:22;;;;;;;14.05;6.32;;;0.70;99.90;;;;;;4950383;28;20501;-72
2023/03/11 04:57:47;;;;;;;9.68;5.70;;;0.80;99.90;;;;;;4937289;28;20054;-75
2023/03/11 05:00:14;;;;;;;9.40;5.65;;;0.70;99.90;;;;;;4975388;28;20803;-73
2023/03/11 05:02:40;;;;;;;10.10;6.40;;;0.60;99.90;;;;;;4954967;28;20065;-73
2023/03/11 05:05:07;;;;;;;11.45;7.07;;;0.70;99.90;;;;;;4968455;28;20051;-73
2023/03/11 05:07:33;;;;;;;11.55;6.03;;;0.70;99.90;;;;;;4968875;28;20499;-73
2023/03/11 05:09:58;;;;;;;11.27;6.90;;;0.60;99.90;;;;;;4965822;28;20054;-73
2023/03/11 05:12:24;;;;;;;11.38;5.57;;;0.60;99.90;;;;;;4953696;28;20045;-72
2023/03/11 05:14:50;;;;;;;10.63;5.28;;;0.60;99.90;;;;;;4973151;28;20481;-74
2023/03/11 05:17:18;;;;;;;12.80;5.57;;;0.60;99.90;;;;;;4985461;28;20054;-73
2023/03/11 05:19:44;;;;;;;9.60;5.45;;;0.60;99.90;;;;;;4957948;28;20047;-73
2023/03/11 05:22:09;;;;;;;11.90;5.75;;;0.60;99.90;;;;;;4968602;28;20459;-73
2023/03/11 05:24:35;;;;;;;10.20;4.60;;;0.70;99.90;;;;;;4964948;28;20058;-73
2023/03/11 05:27:01;;;;;;;7.05;4.53;;;0.60;99.90;;;;;;4943508;28;20046;-72
2023/03/11 05:29:27;;;;;;;9.07;4.63;;;0.60;99.90;;;;;;4973393;28;20053;-72
2023/03/11 05:31:54;;;;;;;9.52;4.30;;;0.60;99.90;;;;;;4967880;28;20161;-72
2023/03/11 05:34:21;;;;;;;9.85;4.22;;;0.50;99.90;;;;;;4971286;28;20375;-73
2023/03/11 05:36:47;;;;;;;8.88;4.72;;;0.50;99.90;;;;;;4980928;28;20159;-73
2023/03/11 05:39:12;;;;;;;10.35;4.30;;;0.70;99.90;;;;;;4952413;28;20200;-75
2023/03/11 05:41:38;;;;;;;6.93;3.97;;;0.50;99.90;;;;;;4952035;28;20043;-73
2023/03/11 05:44:04;;;;;;;10.98;4.53;;;0.50;99.90;;;;;;4946164;28;20133;-72
2023/03/11 05:46:31;;;;;;;7.75;4.38;;;0.50;99.90;;;;;;4981542;28;20387;-72
2023/03/11 05:48:58;;;;;;;10.80;5.22;;;0.50;99.90;;;;;;4987148;28;20058;-73
2023/03/11 05:51:24;;;;;;;11.73;4.90;;;0.60;99.90;;;;;;4979569;28;20053;-73
2023/03/11 05:53:50;;;;;;;9.43;5.05;;;0.50;99.90;;;;;;4989376;28;20046;-72
2023/03/11 05:56:16;;;;;;;6.70;4.63;;;0.50;99.90;;;;;;4965176;28;20811;-72
2023/03/11 05:58:42;;;;;;;9.75;4.55;;;0.50;99.90;;;;;;4957493;28;20042;-72
2023/03/11 06:01:10;;;;;;;14.90;7.55;;;0.50;99.90;;;;;;4990109;28;20043;-72
2023/03/11 06:03:36;;;;;;;18.20;5.30;;;0.60;99.90;;;;;;4947246;28;20050;-73
2023/03/11 06:06:04;;;;;;;10.55;5.13;;;0.50;99.90;;;;;;4951452;28;20507;-72
2023/03/11 06:08:29;;;;;;;13.18;5.93;;;0.50;99.90;;;;;;4942380;28;20046;-73
2023/03/11 06:11:03;;;;;;;10.45;5.30;;;0.50;99.90;;;;;;4963874;28;20077;-73
2023/03/11 06:13:30;;;;;;;10.60;5.43;;;0.60;99.90;;;;;;4978008;28;20117;-73
2023/03/11 06:15:56;;;;;;;12.05;5.78;;;0.50;99.90;;;;;;4979630;28;20059;-73
2023/03/11 06:18:22;;;;;;;10.55;5.68;;;0.60;99.90;;;;;;4935241;28;20054;-73
2023/03/11 06:20:48;;;;;;;13.63;5.65;;;0.50;99.90;;;;;;4977817;28;20340;-75
2023/03/11 06:23:14;;;;;;;11.60;5.90;;;0.70;99.90;;;;;;4945799;28;20057;-72
2023/03/11 06:25:40;;;;;;;14.75;6.28;;;0.60;99.90;;;;;;4961837;28;20081;-72
2023/03/11 06:28:05;;;;;;;12.23;6.40;;;0.60;99.90;;;;;;4946673;28;20047;-73
2023/03/11 06:30:31;;;;;;;9.90;5.57;;;0.60;99.90;;;;;;4957528;28;20047;-72
2023/03/11 06:32:57;;;;;;;11.73;5.70;;;0.60;99.90;;;;;;4990001;28;20101;-74
2023/03/11 06:35:24;;;;;;;11.90;6.22;;;0.70;99.90;;;;;;4959214;28;20066;-73
2023/03/11 06:37:53;;;;;;;11.43;5.78;;;0.70;99.90;;;;;;4962688;28;20050;-71
2023/03/11 06:40:19;;;;;;;13.13;5.78;;;0.70;99.90;;;;;;4969021;28;20053;-71
2023/03/11 06:42:46;;;;;;;11.52;5.30;;;0.60;99.90;;;;;;4978865;28;20764;-72
2023/03/11 06:45:12;;;;;;;12.25;5.95;;;0.70;99.90;;;;;;4967781;28;20061;-73
2023/03/11 06:47:38;;;;;;;10.80;5.82;;;0.60;99.90;;;;;;4985285;28;20042;-74
2023/03/11 06:50:06;;;;;;;22.60;8.15;;;0.70;99.90;;;;;;4939632;28;20042;-74
2023/03/11 06:52:32;;;;;;;11.82;5.82;;;0.60;99.90;;;;;;4973026;28;20100;-72
2023/03/11 06:54:57;;;;;;;10.77;5.95;;;0.70;99.90;;;;;;4940240;28;20054;-73
2023/03/11 06:57:23;;;;;;;17.73;5.88;;;0.60;99.90;;;;;;4984798;28;20045;-74
2023/03/11 06:59:49;;;;;;;13.77;5.57;;;0.70;99.90;;;;;;4969491;28;20043;-74
2023/03/11 07:02:15;;;;;;;11.43;5.28;;;0.70;99.90;;;;;;4968793;28;20042;-73
2023/03/11 07:04:40;;;;;;;14.45;5.40;;;0.60;99.90;;;;;;4967971;28;20542;-74
2023/03/11 07:07:06;;;;;;;13.43;5.72;;;0.70;99.90;;;;;;4968359;28;20577;-73
2023/03/11 07:09:32;;;;;;;9.82;5.28;;;0.70;99.90;;;;;;4963101;28;20736;-72
2023/03/11 07:11:57;;;;;;;7.68;4.80;;;0.70;99.90;;;;;;4975117;28;20533;-73
2023/03/11 07:14:23;;;;;;;10.52;5.03;;;0.70;99.90;;;;;;4966491;28;20050;-72
2023/03/11 07:16:49;;;;;;;11.18;5.55;;;0.70;99.90;;;;;;4986164;28;20051;-72
2023/03/11 07:19:15;;;;;;;12.73;5.32;;;0.80;99.90;;;;;;4960853;28;20051;-72
2023/03/11 07:21:42;;;;;;;11.70;6.05;;;0.80;99.90;;;;;;4988473;28;20061;-72
2023/03/11 07:24:11;;;;;;;10.70;5.30;;;0.70;99.90;;;;;;4962605;28;20114;-73
2023/03/11 07:26:36;;;;;;;11.85;5.82;;;0.70;99.90;;;;;;4960616;28;20054;-73
2023/03/11 07:29:02;;;;;;;12.05;5.18;;;0.70;99.90;;;;;;4975637;28;20058;-73
2023/03/11 07:31:30;;;;;;;13.02;5.93;;;0.70;99.90;;;;;;4986508;28;20042;-73
2023/03/11 07:33:57;;;;;;;10.40;5.00;;;0.80;99.90;;;;;;4974997;28;20053;-73
2023/03/11 07:36:23;;;;;;;10.83;4.73;;;0.80;99.90;;;;;;4964623;28;20046;-73
2023/03/11 07:39:01;;;;;;;10.88;4.90;;;0.80;99.90;;;;;;4966466;28;20340;-73
2023/03/11 07:41:27;;;;;;;15.10;5.18;;;0.80;99.90;;;;;;4986350;28;20057;-73
2023/03/11 07:43:54;;;;;;;13.18;5.68;;;0.80;99.90;;;;;;4948097;28;20175;-73
2023/03/11 07:46:21;;;;;;;10.75;4.95;;;0.90;99.90;;;;;;4963532;28;20050;-73
2023/03/11 07:48:47;;;;;;;13.35;5.30;;;0.80;99.90;;;;;;4953956;28;20141;-72
2023/03/11 07:51:18;;;;;;;12.80;5.82;;;0.80;99.90;;;;;;4956486;28;20435;-72
2023/03/11 07:53:43;;;;;;;9.05;5.07;;;0.90;99.90;;;;;;4961084;28;20057;-72
2023/03/11 07:56:10;;;;;;;14.38;6.00;;;0.90;99.90;;;;;;4969000;28;20055;-74
2023/03/11 07:58:36;;;;;;;15.48;6.05;;;0.90;99.90;;;;;;4954447;28;20045;-73
2023/03/11 08:01:06;;;;;;;15.23;5.38;;;0.90;99.90;;;;;;4946927;28;20107;-72
2023/03/11 08:03:33;;;;;;;11.85;5.65;;;0.90;99.90;;;;;;4956121;28;20076;-73
2023/03/11 08:05:59;;;;;;;9.98;5.07;;;0.90;99.90;;;;;;4962154;28;20074;-73
2023/03/11 08:08:26;;;;;;;11.35;5.93;;;0.80;99.90;;;;;;4964528;28;20795;-73
2023/03/11 08:10:51;;;;;;;14.55;4.75;;;0.90;99.90;;;;;;4956777;28;20057;-72
2023/03/11 08:13:17;;;;;;;10.68;5.10;;;0.90;99.90;;;;;;4982668;28;20046;-72
2023/03/11 08:15:43;;;;;;;9.88;4.72;;;1.00;99.90;;;;;;4969025;28;20046;-72
2023/03/11 08:18:09;;;;;;;11.80;5.20;;;1.00;99.90;;;;;;4974530;28;20046;-73
2023/03/11 08:20:37;;;;;;;12.90;4.97;;;1.00;99.90;;;;;;4976271;28;20050;-72
2023/03/11 08:23:02;;;;;;;13.73;5.18;;;1.00;99.90;;;;;;4945418;28;20058;-73
2023/03/11 08:25:28;;;;;;;17.10;5.00;;;1.00;99.90;;;;;;4985781;28;20055;-72
2023/03/11 08:27:54;;;;;;;10.70;4.93;;;1.00;99.90;;;;;;4947652;28;20125;-73
2023/03/11 08:30:20;;;;;;;12.70;5.25;;;1.00;99.90;;;;;;4976360;28;20416;-73
2023/03/11 08:32:45;;;;;;;8.27;4.95;;;1.10;99.90;;;;;;4978528;28;20060;-73
2023/03/11 08:35:11;;;;;;;16.77;5.38;;;1.00;99.90;;;;;;4967633;28;20050;-73
2023/03/11 08:37:37;;;;;;;11.55;5.38;;;1.00;99.90;;;;;;4992465;28;20467;-73
2023/03/11 08:40:04;;;;;;;14.27;4.97;;;1.00;99.90;;;;;;4980398;28;20054;-73
2023/03/11 08:42:30;;;;;;;12.02;5.85;;;1.00;99.90;;;;;;4972197;28;20443;-73
2023/03/11 08:44:56;;;;;;;10.20;5.20;;;1.00;99.90;;;;;;4978270;28;20058;-72
2023/03/11 08:47:22;;;;;;;12.23;5.53;;;1.10;99.90;;;;;;4985338;28;20057;-73
2023/03/11 08:49:47;;;;;;;11.88;6.80;;;1.00;99.90;;;;;;4954262;28;20073;-72
2023/03/11 08:52:13;;;;;;;14.35;6.05;;;1.00;99.90;;;;;;4972010;28;20069;-72
2023/03/11 08:54:39;;;;;;;13.02;6.32;;;1.00;99.90;;;;;;4974039;28;20057;-74
2023/03/11 08:57:08;;;;;;;13.02;5.97;;;1.10;99.90;;;;;;4970728;28;20057;-73
2023/03/11 08:59:35;;;;;;;17.52;7.00;;;1.20;99.90;;;;;;4970774;28;20046;-73
2023/03/11 09:02:00;;;;;;;16.05;6.60;;;0.90;99.90;;;;;;4985709;28;20104;-73
2023/03/11 09:04:26;;;;;;;14.77;5.82;;;1.50;99.90;;;;;;4979101;28;20042;-72
2023/03/11 09:06:53;;;;;;;12.02;6.88;;;1.80;99.90;;;;;;4971488;28;20074;-72
2023/03/11 09:09:19;;;;;;;13.93;6.07;;;2.00;99.90;;;;;;4940944;28;20043;-73
2023/03/11 09:11:46;;;;;;;11.65;6.32;;;1.90;99.90;;;;;;4958214;28;20565;-72
2023/03/11 09:14:12;;;;;;;16.48;8.10;;;1.90;99.90;;;;;;4962425;28;20072;-73
2023/03/11 09:16:37;;;;;;;10.15;6.25;;;1.90;99.90;;;;;;4950102;28;20534;-73
2023/03/11 09:19:06;;;;;;;9.02;6.22;;;2.10;99.90;;;;;;4923470;28;20109;-73
2023/03/11 09:21:32;;;;;;;;;;;2.30;99.90;;;;;;4966727;28;20052;-73
2023/03/11 09:23:58;;;;;;;10.32;6.65;;;2.30;99.90;;;;;;4968556;28;19956;-74
2023/03/11 09:26:24;;;;;;;10.38;6.30;;;2.30;99.90;;;;;;4951361;28;20058;-73
2023/03/11 09:28:50;;;;;;;11.73;6.63;;;2.00;99.90;;;;;;4979908;28;20403;-72
2023/03/11 09:31:16;;;;;;;13.32;6.40;;;2.20;99.90;;;;;;4981808;28;20629;-72
2023/03/11 09:33:42;;;;;;;12.05;6.95;;;2.30;99.90;;;;;;4944808;28;20042;-72
2023/03/11 09:36:18;;;;;;;12.18;7.20;;;2.00;99.90;;;;;;4955660;28;20057;-72
2023/03/11 09:38:43;;;;;;;14.30;6.40;;;2.20;99.90;;;;;;4932345;28;20082;-72
2023/03/11 09:41:27;;;;;;;12.13;7.43;;;2.30;99.90;;;;;;4947793;28;20077;-73
2023/03/11 09:44:10;;;;;;;13.35;6.43;;;2.30;99.90;;;;;;4966487;28;20050;-73
2023/03/11 09:46:55;;;;;;;10.20;5.80;;;2.30;99.90;;;;;;4968580;28;20055;-71
2023/03/11 09:49:56;;;;;;;9.27;5.90;;;2.30;99.90;;;;;;4974613;28;20038;-72
2023/03/11 09:52:36;;;;;;;11.70;5.85;;;2.10;99.90;;;;;;4948228;28;20043;-71
2023/03/11 09:55:03;;;;;;;12.35;5.70;;;2.50;99.90;;;;;;4975566;28;20042;-72
2023/03/11 09:57:32;;;;;;;9.38;6.00;;;2.50;99.90;;;;;;4959318;28;20047;-72
2023/03/11 09:59:59;;;;;;;;;;;2.60;99.90;;;;;;4956303;28;20050;-74
2023/03/11 10:02:27;;;;;;;11.00;5.45;;;2.40;99.90;;;;;;4983455;28;20001;-73
2023/03/11 10:05:02;;;;;;;12.73;5.50;;;2.20;99.90;;;;;;4950056;28;20065;-74
2023/03/11 10:07:39;;;;;;;9.45;5.03;;;2.40;99.90;;;;;;4945939;28;20063;-73
2023/03/11 10:10:06;;;;;;;11.48;5.47;;;2.40;99.90;;;;;;4945059;28;20876;-73
2023/03/11 10:13:08;;;;;;;9.50;5.57;;;2.50;99.90;;;;;;4952382;28;20051;-74
2023/03/11 10:15:57;;;;;;;11.82;6.03;;;2.40;99.90;;;;;;4955106;28;20062;-72
2023/03/11 10:18:35;;;;;;;10.27;5.70;;;2.50;99.90;;;;;;4959889;28;20065;-73
2023/03/11 10:21:18;;;;;;;11.00;4.93;;;2.60;99.90;;;;;;4965027;28;20049;-72
2023/03/11 10:24:16;;;;;;;9.30;4.97;;;2.70;99.90;;;;;;4979632;28;20375;-75
2023/03/11 10:26:48;;;;;;;12.23;4.63;;;2.70;99.90;;;;;;4980718;28;20574;-73
2023/03/11 10:29:39;;;;;;;12.07;5.97;;;2.60;99.90;;;;;;4973152;28;20057;-73
2023/03/11 10:32:20;;;;;;;9.75;5.22;;;2.60;99.90;;;;;;4986886;28;20505;-73
2023/03/11 10:34:49;;;;;;;10.45;4.72;;;2.90;99.90;;;;;;4992325;28;20398;-73
2023/03/11 10:37:16;;;;;;;11.88;5.03;;;2.80;99.90;;;;;;4979151;28;20086;-74
2023/03/11 10:39:42;;;;;;;9.15;4.60;;;3.00;99.90;;;;;;4989430;28;20042;-73
2023/03/11 10:42:34;;;;;;;12.35;5.47;;;3.20;99.90;;;;;;4987384;28;20046;-73
2023/03/11 10:45:00;;;;;;;10.25;4.43;;;3.20;99.90;;;;;;4988911;28;20058;-73
2023/03/11 10:47:26;;;;;;;8.50;4.45;;;3.30;99.90;;;;;;4991450;28;20050;-74
2023/03/11 10:49:51;;;;;;;7.63;4.22;;;3.20;99.90;;;;;;4983531;28;20109;-73
2023/03/11 10:52:18;;;;;;;9.73;5.00;;;3.40;99.90;;;;;;4977311;28;20152;-72
2023/03/11 10:54:48;;;;;;;7.60;4.07;;;3.50;99.90;;;;;;4966914;28;20046;-73
2023/03/11 10:57:24;;;;;;;9.82;4.53;;;3.30;99.90;;;;;;4968913;28;20543;-72
2023/03/11 11:00:15;;;;;;;11.40;4.82;;;3.30;99.90;;;;;;4964053;28;20046;-74
2023/03/11 11:02:52;;;;;;;9.45;4.38;;;3.60;99.90;;;;;;4974635;28;20042;-75
2023/03/11 11:05:17;;;;;;;6.80;4.00;;;3.80;99.90;;;;;;4977390;28;20705;-74
2023/03/11 11:08:07;;;;;;;8.98;4.13;;;3.60;99.90;;;;;;4992684;28;20073;-74
2023/03/11 11:10:34;;;;;;;10.43;4.82;;;3.30;99.90;;;;;;4979632;28;20051;-74
2023/03/11 11:13:12;;;;;;;10.20;4.38;;;4.10;99.90;;;;;;4971823;28;20146;-75
2023/03/11 11:15:39;;;;;;;8.13;4.22;;;4.30;99.90;;;;;;4977593;28;20486;-75
2023/03/11 11:18:06;;;;;;;11.32;4.75;;;4.70;99.90;;;;;;4992652;28;20053;-74
2023/03/11 11:20:32;;;;;;;8.10;4.72;;;4.40;99.90;;;;;;4974991;28;20042;-75
2023/03/11 11:23:00;;;;;;;7.57;4.55;;;3.90;99.90;;;;;;4969241;28;20130;-74
2023/03/11 11:25:32;;;;;;;10.40;4.20;;;3.80;99.90;;;;;;4942602;28;20062;-75
2023/03/11 11:28:18;;;;;;;9.27;4.28;;;4.10;99.90;;;;;;4990254;28;20038;-73
2023/03/11 11:31:03;;;;;;;9.07;3.88;;;4.20;99.90;;;;;;4955385;28;20933;-73
2023/03/11 11:33:46;;;;;;;9.93;3.97;;;6.60;99.90;;;;;;4954916;28;20046;-74
2023/03/11 11:36:13;;;;;;;7.93;3.72;;;6.60;99.90;;;;;;4970001;28;20076;-75
2023/03/11 11:38:39;;;;;;;9.10;4.32;;;5.30;99.90;;;;;;4948547;28;20042;-75
2023/03/11 11:41:05;;;;;;;6.65;2.95;;;6.60;99.90;;;;;;4954634;28;20057;-74
2023/03/11 11:43:52;;;;;;;18.45;4.00;;;5.40;99.90;;;;;;4954983;28;20046;-74
2023/03/11 11:46:29;;;;;;;9.57;3.40;;;5.90;99.90;;;;;;4979650;28;20120;-75
2023/03/11 11:48:58;;;;;;;10.10;3.40;;;6.20;99.90;;;;;;4960736;28;20062;-73
2023/03/11 11:51:52;;;;;;;6.80;3.22;;;5.70;99.90;;;;;;4973865;28;20046;-75
2023/03/11 11:54:28;;;;;;;8.40;3.30;;;7.90;96.80;;;;;;4984636;28;20056;-74
2023/03/11 11:56:55;;;;;;;5.03;2.53;;;9.80;85.70;;;;;;4957914;28;20467;-75
2023/03/11 11:59:21;;;;;;;6.35;2.55;;;7.10;93.00;;;;;;4972393;28;20057;-74
2023/03/11 12:01:53;;;;;;;6.18;2.42;;;6.40;99.90;;;;;;4945267;28;20078;-75
2023/03/11 12:04:37;;;;;;;6.63;2.80;;;7.30;99.50;;;;;;4973475;28;20053;-73
2023/03/11 12:07:37;;;;;;;5.68;2.50;;;5.50;99.90;;;;;;4975395;28;20061;-74
2023/03/11 12:10:33;;;;;;;7.78;2.90;;;5.20;99.90;;;;;;4987036;28;20081;-75
2023/03/11 12:13:17;;;;;;;6.22;2.20;;;5.00;99.90;;;;;;4979109;28;20058;-74
2023/03/11 12:15:48;;;;;;;6.13;2.65;;;5.60;99.90;;;;;;4972766;28;20068;-73
2023/03/11 12:18:22;;;;;;;7.65;1.98;;;5.50;99.90;;;;;;4951513;28;20451;-74
2023/03/11 12:20:52;;;;;;;6.07;2.55;;;5.10;99.90;;;;;;4969973;28;20421;-73
2023/03/11 12:23:55;;;;;;;3.33;1.80;;;5.20;99.90;;;;;;4964351;28;20070;-74
2023/03/11 12:26:32;;;;;;;5.40;1.63;;;5.50;99.90;;;;;;4968445;28;20047;-74
2023/03/11 12:29:03;;;;;;;7.10;2.28;;;7.30;98.50;;;;;;4975797;28;20063;-74
2023/03/11 12:31:32;;;;;;;8.98;2.35;;;9.70;91.80;;;;;;4993221;28;20042;-75
2023/03/11 12:34:01;;;;;;;5.15;2.00;;;10.20;78.90;;;;;;4973620;28;20047;-75
2023/03/11 12:36:42;;;;;;;6.68;2.08;;;9.40;80.40;;;;;;4958543;28;20042;-74
2023/03/11 12:39:27;;;;;;;4.13;1.73;;;8.60;74.20;;;;;;4970044;28;20046;-73
2023/03/11 12:42:14;;;;;;;6.10;1.80;;;7.60;88.70;;;;;;4953429;28;20047;-75
2023/03/11 12:44:40;;;;;;;5.75;2.20;;;7.30;92.40;;;;;;4958361;28;20080;-72
2023/03/11 12:47:12;;;;;;;8.10;2.83;;;6.70;92.10;;;;;;4943723;28;20043;-72
2023/03/11 12:49:45;;;;;;;6.78;1.90;;;6.80;95.70;;;;;;4982957;28;20116;-72
2023/03/11 12:52:11;;;;;;;3.95;2.15;;;7.00;93.80;;;;;;4949444;28;20043;-71
2023/03/11 12:54:40;;;;;;;7.07;2.67;;;9.30;87.50;;;;;;4980655;28;20058;-73
2023/03/11 12:57:15;;;;;;;5.93;2.22;;;10.60;67.40;;;;;;4973652;28;20810;-73